createdAt,value
2019-02-18T00:00:24.105Z,19.06
2019-02-18T00:01:23.994Z,19.03
2019-02-18T00:02:24.104Z,19.03
2019-02-18T00:03:24.278Z,19.03
2019-02-18T00:04:24.880Z,19.01
2019-02-18T00:05:25.708Z,19.01
2019-02-18T00:06:23.968Z,19.02
2019-02-18T00:07:24.254Z,19.01
2019-02-18T00:08:23.815Z,19.02
2019-02-18T00:09:24.289Z,19
2019-02-18T00:10:24.680Z,18.99
2019-02-18T00:11:23.803Z,18.98
2019-02-18T00:12:24.191Z,18.99
2019-02-18T00:13:24.222Z,18.99
2019-02-18T00:14:24.126Z,18.98
2019-02-18T00:15:24.020Z,18.98
2019-02-18T00:16:24.220Z,18.98
2019-02-18T00:17:24.217Z,18.97
2019-02-18T00:18:24.235Z,18.97
2019-02-18T00:19:24.022Z,18.96
2019-02-18T00:20:23.919Z,18.95
2019-02-18T00:21:32.889Z,18.95
2019-02-18T00:22:23.887Z,18.95
2019-02-18T00:23:24.185Z,18.94
2019-02-18T00:24:23.934Z,18.94
2019-02-18T00:25:24.066Z,18.94
2019-02-18T00:26:25.841Z,18.95
2019-02-18T00:27:24.798Z,18.94
2019-02-18T00:28:23.803Z,18.94
2019-02-18T00:29:24.323Z,18.92
2019-02-18T00:30:24.226Z,18.93
2019-02-18T00:31:24.322Z,18.92
2019-02-18T00:32:24.244Z,18.89
2019-02-18T00:33:24.422Z,18.89
2019-02-18T00:34:24.046Z,18.88
2019-02-18T00:35:24.165Z,18.89
2019-02-18T00:36:24.279Z,18.88
2019-02-18T00:37:25.005Z,18.89
2019-02-18T00:38:24.392Z,18.89
2019-02-18T00:39:23.801Z,18.87
2019-02-18T00:40:24.302Z,18.89
2019-02-18T00:41:23.894Z,18.87
2019-02-18T00:42:24.311Z,18.87
2019-02-18T00:43:24.311Z,18.88
2019-02-18T00:44:24.225Z,18.86
2019-02-18T00:45:23.928Z,18.84
2019-02-18T00:46:23.963Z,18.85
2019-02-18T00:47:23.837Z,18.84
2019-02-18T00:48:24.044Z,18.85
2019-02-18T00:49:24.772Z,18.86
2019-02-18T00:50:25.668Z,18.83
2019-02-18T00:51:24.057Z,18.84
2019-02-18T00:52:24.185Z,18.82
2019-02-18T00:53:24.190Z,18.82
2019-02-18T00:54:23.853Z,18.83
2019-02-18T00:55:24.156Z,18.82
2019-02-18T00:56:24.131Z,18.81
2019-02-18T00:57:24.106Z,18.82
2019-02-18T00:58:24.252Z,18.83
2019-02-18T00:59:24.853Z,18.8
2019-02-18T01:00:24.658Z,18.79
2019-02-18T01:01:24.603Z,18.8
2019-02-18T01:02:23.708Z,18.79
2019-02-18T01:03:24.044Z,18.81
2019-02-18T01:04:24.035Z,18.77
2019-02-18T01:05:23.990Z,18.78
2019-02-18T01:06:24.092Z,18.78
2019-02-18T01:07:35.455Z,18.78
2019-02-18T01:08:24.144Z,18.78
2019-02-18T01:09:24.002Z,18.76
2019-02-18T01:10:24.297Z,18.76
2019-02-18T01:11:24.331Z,18.74
2019-02-18T01:12:24.359Z,18.74
2019-02-18T01:13:24.014Z,18.77
2019-02-18T01:14:24.309Z,18.76
2019-02-18T01:15:23.786Z,18.73
2019-02-18T01:16:23.979Z,18.73
2019-02-18T01:17:25.691Z,18.71
2019-02-18T01:18:24.670Z,18.73
2019-02-18T01:19:24.375Z,18.71
2019-02-18T01:20:23.903Z,18.71
2019-02-18T01:21:23.836Z,18.72
2019-02-18T01:22:24.257Z,18.71
2019-02-18T01:23:23.834Z,18.71
2019-02-18T01:24:24.224Z,18.7
2019-02-18T01:25:23.994Z,18.7
2019-02-18T01:26:24.815Z,18.7
2019-02-18T01:27:23.997Z,18.71
2019-02-18T01:28:23.766Z,18.67
2019-02-18T01:29:23.829Z,18.69
2019-02-18T01:30:24.223Z,18.69
2019-02-18T01:31:24.254Z,18.69
2019-02-18T01:32:24.370Z,18.68
2019-02-18T01:33:24.678Z,18.67
2019-02-18T01:34:24.794Z,18.67
2019-02-18T01:35:24.037Z,18.69
2019-02-18T01:36:23.947Z,18.68
2019-02-18T01:37:24.068Z,18.63
2019-02-18T01:38:23.905Z,18.64
2019-02-18T01:39:24.098Z,18.64
2019-02-18T01:40:23.756Z,18.65
2019-02-18T01:41:24.587Z,18.64
2019-02-18T01:42:24.097Z,18.64
2019-02-18T01:43:23.888Z,18.63
2019-02-18T01:44:23.779Z,18.63
2019-02-18T01:45:24.113Z,18.64
2019-02-18T01:46:23.888Z,18.62
2019-02-18T01:47:24.163Z,18.63
2019-02-18T01:48:24.164Z,18.62
2019-02-18T01:49:24.265Z,18.62
2019-02-18T01:50:24.726Z,18.61
2019-02-18T01:51:23.971Z,18.58
2019-02-18T01:52:23.875Z,18.63
2019-02-18T01:53:24.128Z,18.59
2019-02-18T01:54:24.330Z,18.58
2019-02-18T01:55:24.422Z,18.58
2019-02-18T01:56:24.787Z,18.59
2019-02-18T01:57:25.862Z,18.57
2019-02-18T01:58:24.139Z,18.57
2019-02-18T01:59:24.450Z,18.57
2019-02-18T02:00:24.256Z,18.58
2019-02-18T02:01:24.063Z,18.58
2019-02-18T02:02:23.879Z,18.58
2019-02-18T02:03:25.522Z,18.57
2019-02-18T02:04:24.215Z,18.56
2019-02-18T02:05:24.018Z,18.57
2019-02-18T02:06:24.204Z,18.55
2019-02-18T02:07:23.764Z,18.55
2019-02-18T02:08:23.957Z,18.55
2019-02-18T02:09:24.633Z,18.54
2019-02-18T02:10:24.246Z,18.54
2019-02-18T02:11:24.015Z,18.55
2019-02-18T02:12:23.889Z,18.54
2019-02-18T02:13:24.090Z,18.54
2019-02-18T02:14:23.968Z,18.55
2019-02-18T02:15:25.636Z,18.53
2019-02-18T02:16:23.991Z,18.53
2019-02-18T02:17:24.112Z,18.53
2019-02-18T02:18:25.705Z,18.52
2019-02-18T02:19:23.923Z,18.52
2019-02-18T02:20:24.273Z,18.51
2019-02-18T02:21:23.819Z,18.51
2019-02-18T02:22:24.304Z,18.52
2019-02-18T02:23:24.039Z,18.52
2019-02-18T02:24:23.986Z,18.49
2019-02-18T02:25:23.984Z,18.51
2019-02-18T02:26:23.875Z,18.52
2019-02-18T02:27:24.122Z,18.5
2019-02-18T02:28:24.265Z,18.49
2019-02-18T02:29:24.098Z,18.49
2019-02-18T02:30:23.895Z,18.48
2019-02-18T02:31:23.849Z,18.47
2019-02-18T02:32:23.979Z,18.44
2019-02-18T02:33:24.208Z,18.49
2019-02-18T02:34:23.967Z,18.46
2019-02-18T02:35:23.708Z,18.44
2019-02-18T02:36:23.910Z,18.46
2019-02-18T02:37:25.029Z,18.46
2019-02-18T02:38:25.669Z,18.46
2019-02-18T02:39:23.933Z,18.48
2019-02-18T02:40:24.945Z,18.46
2019-02-18T02:41:24.746Z,18.44
2019-02-18T02:42:23.979Z,18.42
2019-02-18T02:43:24.163Z,18.43
2019-02-18T02:44:24.107Z,18.42
2019-02-18T02:45:23.992Z,18.43
2019-02-18T02:46:24.396Z,18.41
2019-02-18T02:47:23.901Z,18.42
2019-02-18T02:48:23.794Z,18.41
2019-02-18T02:49:23.630Z,18.41
2019-02-18T02:50:23.671Z,18.42
2019-02-18T02:51:24.615Z,18.41
2019-02-18T02:52:23.574Z,18.42
2019-02-18T02:53:24.082Z,18.41
2019-02-18T02:54:24.304Z,18.4
2019-02-18T02:55:23.749Z,18.39
2019-02-18T02:56:23.719Z,18.39
2019-02-18T02:57:24.263Z,18.39
2019-02-18T02:58:24.141Z,18.4
2019-02-18T02:59:23.786Z,18.41
2019-02-18T03:00:25.370Z,18.38
2019-02-18T03:01:24.021Z,18.36
2019-02-18T03:02:24.646Z,18.37
2019-02-18T03:03:24.594Z,18.39
2019-02-18T03:04:23.858Z,18.36
2019-02-18T03:05:24.286Z,18.35
2019-02-18T03:06:23.711Z,18.37
2019-02-18T03:07:23.824Z,18.36
2019-02-18T03:08:23.930Z,18.35
2019-02-18T03:09:23.783Z,18.35
2019-02-18T03:10:25.996Z,18.35
2019-02-18T03:11:24.930Z,18.33
2019-02-18T03:12:23.841Z,18.32
2019-02-18T03:13:23.974Z,18.34
2019-02-18T03:14:24.019Z,18.34
2019-02-18T03:15:25.599Z,18.34
2019-02-18T03:16:23.966Z,18.33
2019-02-18T03:17:24.240Z,18.32
2019-02-18T03:18:23.669Z,18.33
2019-02-18T03:19:23.964Z,18.33
2019-02-18T03:20:24.324Z,18.34
2019-02-18T03:21:25.650Z,18.3
2019-02-18T03:22:24.150Z,18.3
2019-02-18T03:23:24.309Z,18.3
2019-02-18T03:24:23.922Z,18.29
2019-02-18T03:25:25.129Z,18.29
2019-02-18T03:26:24.170Z,18.29
2019-02-18T03:27:25.635Z,18.29
2019-02-18T03:28:23.849Z,18.29
2019-02-18T03:29:24.491Z,18.3
2019-02-18T03:30:25.682Z,18.28
2019-02-18T03:31:23.967Z,18.29
2019-02-18T03:32:24.548Z,18.26
2019-02-18T03:33:23.833Z,18.27
2019-02-18T03:34:23.932Z,18.26
2019-02-18T03:35:23.697Z,18.27
2019-02-18T03:36:24.214Z,18.25
2019-02-18T03:37:23.895Z,18.26
2019-02-18T03:38:32.302Z,18.26
2019-02-18T03:39:23.746Z,18.25
2019-02-18T03:40:24.377Z,18.25
2019-02-18T03:41:24.202Z,18.25
2019-02-18T03:42:24.173Z,18.25
2019-02-18T03:43:23.720Z,18.24
2019-02-18T03:44:24.050Z,18.23
2019-02-18T03:45:23.766Z,18.23
2019-02-18T03:46:25.690Z,18.22
2019-02-18T03:47:23.569Z,18.22
2019-02-18T03:48:23.673Z,18.23
2019-02-18T03:49:23.732Z,18.24
2019-02-18T03:50:23.706Z,18.22
2019-02-18T03:51:23.712Z,18.23
2019-02-18T03:52:23.933Z,18.23
2019-02-18T03:53:23.818Z,18.23
2019-02-18T03:54:23.819Z,18.21
2019-02-18T03:55:24.335Z,18.21
2019-02-18T03:56:23.746Z,18.21
2019-02-18T03:57:24.075Z,18.19
2019-02-18T03:58:24.245Z,18.19
2019-02-18T03:59:23.865Z,18.2
2019-02-18T04:00:24.161Z,18.18
2019-02-18T04:01:23.914Z,18.2
2019-02-18T04:02:24.062Z,18.2
2019-02-18T04:03:23.964Z,18.19
2019-02-18T04:04:23.823Z,18.18
2019-02-18T04:05:23.817Z,18.19
2019-02-18T04:06:24.416Z,18.17
2019-02-18T04:07:32.934Z,18.17
2019-02-18T04:08:25.497Z,18.17
2019-02-18T04:09:24.906Z,18.18
2019-02-18T04:10:23.953Z,18.17
2019-02-18T04:11:23.923Z,18.15
2019-02-18T04:12:23.993Z,18.18
2019-02-18T04:13:24.170Z,18.14
2019-02-18T04:14:23.866Z,18.14
2019-02-18T04:15:24.301Z,18.13
2019-02-18T04:16:24.013Z,18.14
2019-02-18T04:17:23.880Z,18.13
2019-02-18T04:18:24.067Z,18.13
2019-02-18T04:19:24.021Z,18.14
2019-02-18T04:20:24.094Z,18.13
2019-02-18T04:21:23.867Z,18.14
2019-02-18T04:22:23.920Z,18.12
2019-02-18T04:23:24.089Z,18.13
2019-02-18T04:24:23.900Z,18.12
2019-02-18T04:25:24.028Z,18.13
2019-02-18T04:26:23.981Z,18.12
2019-02-18T04:27:23.883Z,18.13
2019-02-18T04:28:23.886Z,18.13
2019-02-18T04:29:24.127Z,18.11
2019-02-18T04:30:23.886Z,18.11
2019-02-18T04:31:24.506Z,18.09
2019-02-18T04:32:24.072Z,18.11
2019-02-18T04:33:23.568Z,18.11
2019-02-18T04:34:24.131Z,18.12
2019-02-18T04:35:24.217Z,18.09
2019-02-18T04:36:24.015Z,18.09
2019-02-18T04:37:23.810Z,18.11
2019-02-18T04:38:23.895Z,18.1
2019-02-18T04:39:23.945Z,18.08
2019-02-18T04:40:24.000Z,18.1
2019-02-18T04:41:24.293Z,18.08
2019-02-18T04:42:23.880Z,18.09
2019-02-18T04:43:24.337Z,18.11
2019-02-18T04:44:23.950Z,18.1
2019-02-18T04:45:24.464Z,18.08
2019-02-18T04:46:24.119Z,18.08
2019-02-18T04:47:24.331Z,18.09
2019-02-18T04:48:25.624Z,18.11
2019-02-18T04:49:23.884Z,18.11
2019-02-18T04:50:23.885Z,18.13
2019-02-18T04:51:23.684Z,18.13
2019-02-18T04:52:24.259Z,18.11
2019-02-18T04:53:24.075Z,18.12
2019-02-18T04:54:23.719Z,18.12
2019-02-18T04:55:23.887Z,18.12
2019-02-18T04:56:24.092Z,18.13
2019-02-18T04:57:24.306Z,18.12
2019-02-18T04:58:23.900Z,18.12
2019-02-18T04:59:24.116Z,18.12
2019-02-18T05:00:24.014Z,18.13
2019-02-18T05:01:24.244Z,18.14
2019-02-18T05:02:24.020Z,18.17
2019-02-18T05:03:23.844Z,18.19
2019-02-18T05:04:24.000Z,18.18
2019-02-18T05:05:23.609Z,18.21
2019-02-18T05:06:25.933Z,18.21
2019-02-18T05:07:24.404Z,18.22
2019-02-18T05:08:25.637Z,18.26
2019-02-18T05:09:23.882Z,18.27
2019-02-18T05:10:24.211Z,18.28
2019-02-18T05:11:24.212Z,18.29
2019-02-18T05:12:23.989Z,18.32
2019-02-18T05:13:25.781Z,18.32
2019-02-18T05:14:23.622Z,18.34
2019-02-18T05:15:23.642Z,18.37
2019-02-18T05:16:23.524Z,18.37
2019-02-18T05:17:23.710Z,18.4
2019-02-18T05:18:23.440Z,18.4
2019-02-18T05:19:23.759Z,18.42
2019-02-18T05:20:24.105Z,18.44
2019-02-18T05:21:23.686Z,18.47
2019-02-18T05:22:25.583Z,18.49
2019-02-18T05:23:24.047Z,18.49
2019-02-18T05:24:23.602Z,18.53
2019-02-18T05:25:24.319Z,18.5
2019-02-18T05:26:24.725Z,18.53
2019-02-18T05:27:33.895Z,18.55
2019-02-18T05:28:23.958Z,18.59
2019-02-18T05:29:24.582Z,18.58
2019-02-18T05:30:24.465Z,18.61
2019-02-18T05:31:23.915Z,18.58
2019-02-18T05:32:24.194Z,18.63
2019-02-18T05:33:23.938Z,18.63
2019-02-18T05:34:23.845Z,18.65
2019-02-18T05:35:24.044Z,18.66
2019-02-18T05:36:23.859Z,18.69
2019-02-18T05:37:23.979Z,18.69
2019-02-18T05:38:24.521Z,18.72
2019-02-18T05:39:23.753Z,18.71
2019-02-18T05:40:23.881Z,18.73
2019-02-18T05:41:23.863Z,18.73
2019-02-18T05:42:23.787Z,18.73
2019-02-18T05:43:24.108Z,18.78
2019-02-18T05:44:23.709Z,18.8
2019-02-18T05:45:23.764Z,18.79
2019-02-18T05:46:23.879Z,18.8
2019-02-18T05:47:24.057Z,18.8
2019-02-18T05:48:23.725Z,18.82
2019-02-18T05:49:23.783Z,18.84
2019-02-18T05:50:23.768Z,18.84
2019-02-18T05:51:23.973Z,18.84
2019-02-18T05:52:23.878Z,18.85
2019-02-18T05:53:23.817Z,18.87
2019-02-18T05:54:23.986Z,18.87
2019-02-18T05:55:23.950Z,18.91
2019-02-18T05:56:24.030Z,18.91
2019-02-18T05:57:24.728Z,18.92
2019-02-18T05:58:23.794Z,18.92
2019-02-18T05:59:23.872Z,18.95
2019-02-18T06:00:24.654Z,18.93
2019-02-18T06:01:24.165Z,18.93
2019-02-18T06:02:24.151Z,18.96
2019-02-18T06:03:23.885Z,18.97
2019-02-18T06:04:23.708Z,18.97
2019-02-18T06:05:23.905Z,18.97
2019-02-18T06:06:23.749Z,18.99
2019-02-18T06:07:23.800Z,18.98
2019-02-18T06:08:24.017Z,19.02
2019-02-18T06:09:30.598Z,19.01
2019-02-18T06:10:23.921Z,19.01
2019-02-18T06:11:23.992Z,19.01
2019-02-18T06:12:24.847Z,19.01
2019-02-18T06:13:24.226Z,19.03
2019-02-18T06:14:24.033Z,19.01
2019-02-18T06:15:24.049Z,19.05
2019-02-18T06:16:24.799Z,19.05
2019-02-18T06:17:23.732Z,19.02
2019-02-18T06:18:24.133Z,19.03
2019-02-18T06:19:23.952Z,19.03
2019-02-18T06:20:24.774Z,19.03
2019-02-18T06:21:23.985Z,19.05
2019-02-18T06:22:24.259Z,19.06
2019-02-18T06:23:23.705Z,19.03
2019-02-18T06:24:23.865Z,19.03
2019-02-18T06:25:23.941Z,19.05
2019-02-18T06:26:24.432Z,19.07
2019-02-18T06:27:25.590Z,19.05
2019-02-18T06:28:24.034Z,19.07
2019-02-18T06:29:24.148Z,19.06
2019-02-18T06:30:23.661Z,19.07
2019-02-18T06:31:23.681Z,19.07
2019-02-18T06:32:24.390Z,19.07
2019-02-18T06:33:23.708Z,19.07
2019-02-18T06:34:23.838Z,19.07
2019-02-18T06:35:24.436Z,19.09
2019-02-18T06:36:24.330Z,19.07
2019-02-18T06:37:23.980Z,19.08
2019-02-18T06:38:24.018Z,19.07
2019-02-18T06:39:23.921Z,19.08
2019-02-18T06:40:23.841Z,19.07
2019-02-18T06:41:24.036Z,19.06
2019-02-18T06:42:24.056Z,19.09
2019-02-18T06:43:24.125Z,19.09
2019-02-18T06:44:24.546Z,19.08
2019-02-18T06:45:23.889Z,19.08
2019-02-18T06:46:24.218Z,19.08
2019-02-18T06:47:25.553Z,19.08
2019-02-18T06:48:23.928Z,19.03
2019-02-18T06:49:23.867Z,19.08
2019-02-18T06:50:23.879Z,19.09
2019-02-18T06:51:24.033Z,19.09
2019-02-18T06:52:24.154Z,19.1
2019-02-18T06:53:23.769Z,19.09
2019-02-18T06:54:24.103Z,19.12
2019-02-18T06:55:24.067Z,19.13
2019-02-18T06:56:24.310Z,19.12
2019-02-18T06:57:23.809Z,19.12
2019-02-18T06:58:23.899Z,19.14
2019-02-18T06:59:23.976Z,19.14
2019-02-18T07:00:23.781Z,19.15
2019-02-18T07:01:24.554Z,19.16
2019-02-18T07:02:23.856Z,19.14
2019-02-18T07:03:23.944Z,19.14
2019-02-18T07:04:23.734Z,19.13
2019-02-18T07:05:23.886Z,19.13
2019-02-18T07:06:25.739Z,19.14
2019-02-18T07:07:24.417Z,19.12
2019-02-18T07:08:23.631Z,19.13
2019-02-18T07:09:24.209Z,19.1
2019-02-18T07:10:24.017Z,19.1
2019-02-18T07:11:24.954Z,19.12
2019-02-18T07:12:23.988Z,19.12
2019-02-18T07:13:24.568Z,19.13
2019-02-18T07:14:25.602Z,19.12
2019-02-18T07:15:23.986Z,19.1
2019-02-18T07:16:24.087Z,19.11
2019-02-18T07:17:24.388Z,19.1
2019-02-18T07:18:23.761Z,19.1
2019-02-18T07:19:23.892Z,19.1
2019-02-18T07:20:24.003Z,19.1
2019-02-18T07:21:23.771Z,19.09
2019-02-18T07:22:24.285Z,19.1
2019-02-18T07:23:25.031Z,19.09
2019-02-18T07:24:24.285Z,19.09
2019-02-18T07:25:23.849Z,19.08
2019-02-18T07:26:24.621Z,19.07
2019-02-18T07:27:23.692Z,19.09
2019-02-18T07:28:24.357Z,19.08
2019-02-18T07:29:24.877Z,19.09
2019-02-18T07:30:23.643Z,19.07
2019-02-18T07:31:24.678Z,19.08
2019-02-18T07:32:24.709Z,19.09
2019-02-18T07:33:24.299Z,19.07
2019-02-18T07:34:23.702Z,19.09
2019-02-18T07:35:24.137Z,19.07
2019-02-18T07:36:25.561Z,19.06
2019-02-18T07:37:23.660Z,19.07
2019-02-18T07:38:25.773Z,19.06
2019-02-18T07:39:23.770Z,19.09
2019-02-18T07:40:25.628Z,19.05
2019-02-18T07:41:23.449Z,19.06
2019-02-18T07:42:23.554Z,19.07
2019-02-18T07:43:23.671Z,19.08
2019-02-18T07:44:23.953Z,19.09
2019-02-18T07:45:23.760Z,19.05
2019-02-18T07:46:25.796Z,19.06
2019-02-18T07:47:23.998Z,19.08
2019-02-18T07:48:23.977Z,19.07
2019-02-18T07:49:23.725Z,19.06
2019-02-18T07:50:25.175Z,19.07
2019-02-18T07:51:24.586Z,19.09
2019-02-18T07:52:23.919Z,19.08
2019-02-18T07:53:23.828Z,19.07
2019-02-18T07:54:25.669Z,19.05
2019-02-18T07:55:23.917Z,19.08
2019-02-18T07:56:24.264Z,19.08
2019-02-18T07:57:23.913Z,19.09
2019-02-18T07:58:24.741Z,19.09
2019-02-18T07:59:24.080Z,19.08
2019-02-18T08:00:23.767Z,19.07
2019-02-18T08:01:23.962Z,19.1
2019-02-18T08:02:24.099Z,19.09
2019-02-18T08:03:24.055Z,19.07
2019-02-18T08:04:23.765Z,19.08
2019-02-18T08:05:23.939Z,19.11
2019-02-18T08:06:24.012Z,19.11
2019-02-18T08:07:23.664Z,19.1
2019-02-18T08:08:23.773Z,19.08
2019-02-18T08:09:23.841Z,19.1
2019-02-18T08:10:24.041Z,19.11
2019-02-18T08:11:24.001Z,19.09
2019-02-18T08:12:23.847Z,19.11
2019-02-18T08:13:27.065Z,19.1
2019-02-18T08:14:25.641Z,19.13
2019-02-18T08:15:23.947Z,19.12
2019-02-18T08:16:23.704Z,19.11
2019-02-18T08:17:24.074Z,19.12
2019-02-18T08:18:23.843Z,19.11
2019-02-18T08:19:24.004Z,19.12
2019-02-18T08:20:24.024Z,19.14
2019-02-18T08:21:23.918Z,19.14
2019-02-18T08:22:24.099Z,19.15
2019-02-18T08:23:24.342Z,19.14
2019-02-18T08:24:25.539Z,19.14
2019-02-18T08:25:24.615Z,19.16
2019-02-18T08:26:23.956Z,19.16
2019-02-18T08:27:23.962Z,19.16
2019-02-18T08:28:23.867Z,19.16
2019-02-18T08:29:24.168Z,19.15
2019-02-18T08:30:24.301Z,19.17
2019-02-18T08:31:23.770Z,19.15
2019-02-18T08:32:23.759Z,19.14
2019-02-18T08:33:24.538Z,19.17
2019-02-18T08:34:23.726Z,19.17
2019-02-18T08:35:24.943Z,19.17
2019-02-18T08:36:24.422Z,19.17
2019-02-18T08:37:23.660Z,19.2
2019-02-18T08:38:23.870Z,19.15
2019-02-18T08:39:23.535Z,19.18
2019-02-18T08:40:23.907Z,19.17
2019-02-18T08:41:23.622Z,19.17
2019-02-18T08:42:23.645Z,19.16
2019-02-18T08:43:24.264Z,19.2
2019-02-18T08:44:23.528Z,19.21
2019-02-18T08:45:24.191Z,19.2
2019-02-18T08:46:24.011Z,19.2
2019-02-18T08:47:25.453Z,19.2
2019-02-18T08:48:24.601Z,19.2
2019-02-18T08:49:23.698Z,19.22
2019-02-18T08:50:24.119Z,19.21
2019-02-18T08:51:24.450Z,19.2
2019-02-18T08:52:24.026Z,19.2
2019-02-18T08:53:23.853Z,19.17
2019-02-18T08:54:23.991Z,19.21
2019-02-18T08:55:25.646Z,19.21
2019-02-18T08:56:23.918Z,19.21
2019-02-18T08:57:24.473Z,19.22
2019-02-18T08:58:23.722Z,19.22
2019-02-18T08:59:25.431Z,19.21
2019-02-18T09:00:23.922Z,19.23
2019-02-18T09:01:24.653Z,19.22
2019-02-18T09:02:23.678Z,19.24
2019-02-18T09:03:23.820Z,19.25
2019-02-18T09:04:23.811Z,19.24
2019-02-18T09:05:24.325Z,19.24
2019-02-18T09:06:24.043Z,19.23
2019-02-18T09:07:23.554Z,19.21
2019-02-18T09:08:23.822Z,19.21
2019-02-18T09:09:23.869Z,19.24
2019-02-18T09:10:34.357Z,19.26
2019-02-18T09:11:23.883Z,19.28
2019-02-18T09:12:24.247Z,19.26
2019-02-18T09:13:24.705Z,19.29
2019-02-18T09:14:23.987Z,19.31
2019-02-18T09:15:23.949Z,19.32
2019-02-18T09:16:23.897Z,19.32
2019-02-18T09:17:24.007Z,19.36
2019-02-18T09:18:23.850Z,19.36
2019-02-18T09:19:24.619Z,19.38
2019-02-18T09:20:25.896Z,19.4
2019-02-18T09:21:24.032Z,19.43
2019-02-18T09:22:23.970Z,19.43
2019-02-18T09:23:24.079Z,19.45
2019-02-18T09:24:23.695Z,19.44
2019-02-18T09:25:23.782Z,19.46
2019-02-18T09:26:23.983Z,19.46
2019-02-18T09:27:23.578Z,19.47
2019-02-18T09:28:24.104Z,19.48
2019-02-18T09:29:24.214Z,19.51
2019-02-18T09:30:23.946Z,19.52
2019-02-18T09:31:24.082Z,19.5
2019-02-18T09:32:23.812Z,19.53
2019-02-18T09:33:24.125Z,19.54
2019-02-18T09:34:23.849Z,19.56
2019-02-18T09:35:23.749Z,19.55
2019-02-18T09:36:23.733Z,19.57
2019-02-18T09:37:23.917Z,19.58
2019-02-18T09:38:25.821Z,19.57
2019-02-18T09:39:31.920Z,19.59
2019-02-18T09:40:24.175Z,19.57
2019-02-18T09:41:24.497Z,19.57
2019-02-18T09:42:26.781Z,19.56
2019-02-18T09:43:23.716Z,19.57
2019-02-18T09:44:23.586Z,19.56
2019-02-18T09:45:24.083Z,19.55
2019-02-18T09:46:23.785Z,19.56
2019-02-18T09:47:23.582Z,19.53
2019-02-18T09:48:23.938Z,19.55
2019-02-18T09:49:24.551Z,19.56
2019-02-18T09:50:23.844Z,19.54
2019-02-18T09:51:24.063Z,19.54
2019-02-18T09:52:23.746Z,19.56
2019-02-18T09:53:23.792Z,19.57
2019-02-18T09:54:24.147Z,19.55
2019-02-18T09:55:23.767Z,19.57
2019-02-18T09:56:23.646Z,19.58
2019-02-18T09:57:24.100Z,19.61
2019-02-18T09:58:23.840Z,19.59
2019-02-18T09:59:23.910Z,19.62
2019-02-18T10:00:23.923Z,19.61
2019-02-18T10:01:23.821Z,19.62
2019-02-18T10:02:24.376Z,19.65
2019-02-18T10:03:32.615Z,19.65
2019-02-18T10:04:24.264Z,19.63
2019-02-18T10:05:24.050Z,19.67
2019-02-18T10:06:23.877Z,19.69
2019-02-18T10:07:24.076Z,19.67
2019-02-18T10:08:23.909Z,19.66
2019-02-18T10:09:23.697Z,19.63
2019-02-18T10:10:24.024Z,19.62
2019-02-18T10:11:23.479Z,19.59
2019-02-18T10:12:23.995Z,19.54
2019-02-18T10:13:24.216Z,19.54
2019-02-18T10:14:24.103Z,19.5
2019-02-18T10:15:23.806Z,19.52
2019-02-18T10:16:23.665Z,19.46
2019-02-18T10:17:23.861Z,19.45
2019-02-18T10:18:23.536Z,19.44
2019-02-18T10:19:24.448Z,19.45
2019-02-18T10:20:23.838Z,19.46
2019-02-18T10:21:23.707Z,19.46
2019-02-18T10:22:23.856Z,19.47
2019-02-18T10:23:23.787Z,19.5
2019-02-18T10:24:23.775Z,19.51
2019-02-18T10:25:24.773Z,19.51
2019-02-18T10:26:25.441Z,19.55
2019-02-18T10:27:23.713Z,19.54
2019-02-18T10:28:23.884Z,19.58
2019-02-18T10:29:23.807Z,19.6
2019-02-18T10:30:25.423Z,19.59
2019-02-18T10:31:23.566Z,19.61
2019-02-18T10:32:23.425Z,19.63
2019-02-18T10:33:23.636Z,19.65
2019-02-18T10:34:24.634Z,19.68
2019-02-18T10:35:26.644Z,19.67
2019-02-18T10:36:24.053Z,19.67
2019-02-18T10:37:23.986Z,19.69
2019-02-18T10:38:23.928Z,19.69
2019-02-18T10:39:24.013Z,19.68
2019-02-18T10:40:23.881Z,19.68
2019-02-18T10:41:23.681Z,19.69
2019-02-18T10:42:23.799Z,19.7
2019-02-18T10:43:32.992Z,19.7
2019-02-18T10:44:23.791Z,19.67
2019-02-18T10:45:25.409Z,19.7
2019-02-18T10:46:24.122Z,19.71
2019-02-18T10:47:23.947Z,19.7
2019-02-18T10:48:23.750Z,19.69
2019-02-18T10:49:24.931Z,19.69
2019-02-18T10:50:23.693Z,19.7
2019-02-18T10:51:23.859Z,19.7
2019-02-18T10:52:24.249Z,19.71
2019-02-18T10:53:24.650Z,19.7
2019-02-18T10:54:23.840Z,19.72
2019-02-18T10:55:23.711Z,19.71
2019-02-18T10:56:24.038Z,19.71
2019-02-18T10:57:26.830Z,19.71
2019-02-18T10:58:23.551Z,19.73
2019-02-18T10:59:24.029Z,19.72
2019-02-18T11:00:24.065Z,19.71
2019-02-18T11:01:24.759Z,19.73
2019-02-18T11:02:23.780Z,19.72
2019-02-18T11:03:23.759Z,19.73
2019-02-18T11:04:23.835Z,19.71
2019-02-18T11:05:23.610Z,19.74
2019-02-18T11:06:23.786Z,19.71
2019-02-18T11:07:24.396Z,19.72
2019-02-18T11:08:23.636Z,19.71
2019-02-18T11:09:23.964Z,19.7
2019-02-18T11:10:23.796Z,19.71
2019-02-18T11:11:23.793Z,19.71
2019-02-18T11:12:23.495Z,19.72
2019-02-18T11:13:24.279Z,19.7
2019-02-18T11:14:25.220Z,19.72
2019-02-18T11:15:24.375Z,19.71
2019-02-18T11:16:25.125Z,19.71
2019-02-18T11:17:23.563Z,19.72
2019-02-18T11:18:23.328Z,19.72
2019-02-18T11:19:23.523Z,19.71
2019-02-18T11:20:23.616Z,19.72
2019-02-18T11:21:23.481Z,19.7
2019-02-18T11:22:23.686Z,19.7
2019-02-18T11:23:24.650Z,19.71
2019-02-18T11:24:26.820Z,19.69
2019-02-18T11:25:23.751Z,19.7
2019-02-18T11:26:23.765Z,19.68
2019-02-18T11:27:23.759Z,19.68
2019-02-18T11:28:24.158Z,19.66
2019-02-18T11:29:23.956Z,19.66
2019-02-18T11:30:23.705Z,19.67
2019-02-18T11:31:23.899Z,19.63
2019-02-18T11:32:25.035Z,19.61
2019-02-18T11:33:23.884Z,19.62
2019-02-18T11:34:23.907Z,19.62
2019-02-18T11:35:24.185Z,19.6
2019-02-18T11:36:23.670Z,19.61
2019-02-18T11:37:24.553Z,19.61
2019-02-18T11:38:25.547Z,19.62
2019-02-18T11:39:23.940Z,19.59
2019-02-18T11:40:26.834Z,19.61
2019-02-18T11:41:28.039Z,19.57
2019-02-18T11:42:24.225Z,19.57
2019-02-18T11:43:23.719Z,19.54
2019-02-18T11:44:23.870Z,19.53
2019-02-18T11:45:23.937Z,19.54
2019-02-18T11:46:23.828Z,19.51
2019-02-18T11:47:23.898Z,19.53
2019-02-18T11:48:25.461Z,19.51
2019-02-18T11:49:25.433Z,19.53
2019-02-18T11:50:23.715Z,19.56
2019-02-18T11:51:23.958Z,19.54
2019-02-18T11:52:24.060Z,19.52
2019-02-18T11:53:24.240Z,19.53
2019-02-18T11:54:24.229Z,19.52
2019-02-18T11:55:24.054Z,19.51
2019-02-18T11:56:24.801Z,19.51
2019-02-18T11:57:24.145Z,19.5
2019-02-18T11:58:25.533Z,19.48
2019-02-18T11:59:24.906Z,19.48
2019-02-18T12:00:23.666Z,19.47
2019-02-18T12:01:23.927Z,19.48
2019-02-18T12:02:23.927Z,19.45
2019-02-18T12:03:23.937Z,19.46
2019-02-18T12:04:25.369Z,19.44
2019-02-18T12:05:25.493Z,19.45
2019-02-18T12:06:24.142Z,19.43
2019-02-18T12:07:23.751Z,19.41
2019-02-18T12:08:23.990Z,19.39
2019-02-18T12:09:23.785Z,19.4
2019-02-18T12:10:23.971Z,19.39
2019-02-18T12:11:24.527Z,19.37
2019-02-18T12:12:23.844Z,19.36
2019-02-18T12:13:24.466Z,19.36
2019-02-18T12:14:23.734Z,19.33
2019-02-18T12:15:24.178Z,19.33
2019-02-18T12:16:24.289Z,19.3
2019-02-18T12:17:24.540Z,19.3
2019-02-18T12:18:24.044Z,19.3
2019-02-18T12:19:25.578Z,19.29
2019-02-18T12:20:24.749Z,19.27
2019-02-18T12:21:23.779Z,19.29
2019-02-18T12:22:24.756Z,19.27
2019-02-18T12:23:25.490Z,19.26
2019-02-18T12:24:23.691Z,19.26
2019-02-18T12:25:24.035Z,19.25
2019-02-18T12:26:25.117Z,19.24
2019-02-18T12:27:23.923Z,19.24
2019-02-18T12:28:23.969Z,19.23
2019-02-18T12:29:27.156Z,19.21
2019-02-18T12:30:23.795Z,19.22
2019-02-18T12:31:23.686Z,19.21
2019-02-18T12:32:23.835Z,19.2
2019-02-18T12:33:24.108Z,19.2
2019-02-18T12:34:25.483Z,19.16
2019-02-18T12:35:35.876Z,19.21
2019-02-18T12:36:23.713Z,19.16
2019-02-18T12:37:24.034Z,19.16
2019-02-18T12:38:23.956Z,19.15
2019-02-18T12:39:24.051Z,19.16
2019-02-18T12:40:23.848Z,19.13
2019-02-18T12:41:23.613Z,19.16
2019-02-18T12:42:25.230Z,19.13
2019-02-18T12:43:23.683Z,19.11
2019-02-18T12:44:24.550Z,19.13
2019-02-18T12:45:24.410Z,19.14
2019-02-18T12:46:23.983Z,19.1
2019-02-18T12:47:23.725Z,19.12
2019-02-18T12:48:23.835Z,19.11
2019-02-18T12:49:23.913Z,19.12
2019-02-18T12:50:26.210Z,19.1
2019-02-18T12:51:24.537Z,19.09
2019-02-18T12:52:24.687Z,19.09
2019-02-18T12:53:24.185Z,19.11
2019-02-18T12:54:23.858Z,19.1
2019-02-18T12:55:26.100Z,19.11